Time;durP1;ratioP1;P1;durP2;ratioP2;P2;SDS_P1;SDS_P2;PMS_P1;PMS_P2;Temp;Humidity;BMP_temperature;BMP_pressure;BME280_temperature;BME280_humidity;BME280_pressure;Samples;Min_cycle;Max_cycle;Signal;HPM_P1;HPM_P2
2022/12/17 13:06:45;;;;;;;63.30;36.95;;;0.90;99.90;;;;;;5076037;28;20528;-81
2022/12/17 13:09:17;;;;;;;61.97;37.95;;;0.90;99.90;;;;;;5076699;28;20080;-78
2022/12/17 13:11:59;;;;;;;69.15;38.42;;;0.90;99.90;;;;;;5058156;28;20099;-74
2022/12/17 13:14:29;;;;;;;60.47;36.95;;;0.90;99.90;;;;;;5075998;28;20052;-75
2022/12/17 13:17:13;;;;;;;58.17;36.60;;;0.90;99.90;;;;;;5041526;28;20058;-73
2022/12/17 13:19:58;;;;;;;59.08;35.75;;;0.90;99.90;;;;;;5058913;28;20132;-75
2022/12/17 13:22:24;;;;;;;58.78;35.25;;;0.90;99.90;;;;;;5076294;28;20044;-75
2022/12/17 13:24:55;;;;;;;60.70;37.03;;;1.00;99.90;;;;;;5075388;28;20396;-75
2022/12/17 13:27:35;;;;;;;65.57;37.92;;;1.00;99.90;;;;;;5057864;28;20531;-76
2022/12/17 13:30:17;;;;;;;66.63;38.72;;;0.90;99.90;;;;;;5075914;28;20055;-76
2022/12/17 13:33:08;;;;;;;73.07;44.53;;;1.00;99.90;;;;;;5075981;28;20056;-76
2022/12/17 13:35:46;;;;;;;65.47;40.30;;;1.00;99.90;;;;;;5058401;28;20373;-75
2022/12/17 13:38:41;;;;;;;66.00;40.58;;;1.00;99.90;;;;;;5075651;28;20057;-76
2022/12/17 13:41:25;;;;;;;62.08;39.45;;;1.00;99.90;;;;;;5076166;28;20075;-75
2022/12/17 13:43:56;;;;;;;64.80;38.38;;;1.00;99.90;;;;;;5075535;28;20044;-75
2022/12/17 13:46:26;;;;;;;69.28;41.88;;;1.00;99.90;;;;;;5076101;28;20060;-76
2022/12/17 13:48:56;;;;;;;67.03;39.58;;;1.00;99.90;;;;;;5075896;28;20118;-76
2022/12/17 13:51:25;;;;;;;65.18;40.40;;;0.80;99.90;;;;;;5058360;28;20129;-76
2022/12/17 13:54:02;;;;;;;68.80;40.47;;;0.90;99.90;;;;;;5075047;28;20053;-76
2022/12/17 13:56:34;;;;;;;66.53;38.80;;;0.90;99.90;;;;;;5075031;28;20048;-75
2022/12/17 13:59:05;;;;;;;70.68;40.78;;;1.00;99.90;;;;;;5075828;28;20399;-76
2022/12/17 14:01:31;;;;;;;70.43;42.25;;;0.90;99.90;;;;;;5074991;28;20044;-76
2022/12/17 14:03:59;;;;;;;72.28;42.22;;;0.90;99.90;;;;;;5074841;28;20044;-76
2022/12/17 14:06:33;;;;;;;70.28;43.03;;;0.90;99.90;;;;;;5057061;28;20076;-75
2022/12/17 14:08:59;;;;;;;69.70;42.00;;;0.90;99.90;;;;;;5057311;28;20389;-76
2022/12/17 14:14:32;;;;;;;78.80;48.42;;;0.80;99.90;;;;;;5075370;28;20127;-76
2022/12/17 14:16:58;;;;;;;72.93;43.70;;;0.80;99.90;;;;;;5057163;28;20143;-77
2022/12/17 14:19:26;;;;;;;72.25;42.60;;;0.80;99.90;;;;;;5074616;28;20052;-77
2022/12/17 14:21:52;;;;;;;78.78;44.35;;;0.80;99.90;;;;;;5057688;28;20127;-78
2022/12/17 14:24:22;;;;;;;78.25;45.40;;;0.70;99.90;;;;;;5074614;28;20048;-78
2022/12/17 14:26:53;;;;;;;80.10;45.63;;;0.80;99.90;;;;;;5074375;28;20052;-77
2022/12/17 14:29:28;;;;;;;76.80;43.80;;;0.70;99.90;;;;;;5074477;28;20063;-77
2022/12/17 14:32:15;;;;;;;74.45;43.88;;;0.90;99.90;;;;;;5074445;28;20176;-77
2022/12/17 14:34:41;;;;;;;75.85;41.90;;;0.80;99.90;;;;;;5056317;28;20057;-77
2022/12/17 14:37:16;;;;;;;78.38;44.83;;;0.70;99.90;;;;;;5056168;28;20535;-77
2022/12/17 14:39:45;;;;;;;79.35;45.45;;;0.70;99.90;;;;;;5057423;28;20523;-77
2022/12/17 14:42:24;;;;;;;85.00;46.53;;;0.70;99.90;;;;;;5074223;28;20044;-77
2022/12/17 14:44:59;;;;;;;84.22;47.95;;;0.60;99.90;;;;;;5074177;28;20044;-77
2022/12/17 14:47:30;;;;;;;80.47;46.35;;;0.60;99.90;;;;;;5074147;28;20044;-77
2022/12/17 14:50:11;;;;;;;79.22;45.72;;;0.60;99.90;;;;;;5056597;28;20498;-78
2022/12/17 14:52:38;;;;;;;87.25;47.67;;;0.60;99.90;;;;;;5057186;28;20064;-77
2022/12/17 14:55:25;;;;;;;79.65;45.13;;;0.50;99.90;;;;;;5055875;28;20124;-77
2022/12/17 14:57:51;;;;;;;80.70;46.92;;;0.50;99.90;;;;;;5056061;28;20059;-77
2022/12/17 15:00:18;;;;;;;79.55;45.17;;;0.40;99.90;;;;;;5073356;28;20060;-76
2022/12/17 15:02:53;;;;;;;86.15;50.65;;;0.40;99.90;;;;;;5073906;28;20048;-77
2022/12/17 15:05:18;;;;;;;87.00;49.53;;;0.40;99.90;;;;;;5073900;28;20080;-77
2022/12/17 15:07:44;;;;;;;88.37;48.97;;;0.30;99.90;;;;;;5073733;28;20080;-78
2022/12/17 15:10:18;;;;;;;83.20;49.43;;;0.30;99.90;;;;;;5056048;28;20048;-78
2022/12/17 15:12:43;;;;;;;84.13;48.83;;;0.30;99.90;;;;;;5074658;28;20105;-77
2022/12/17 15:15:14;;;;;;;97.37;54.30;;;0.20;99.90;;;;;;5055956;28;20473;-77
2022/12/17 15:17:40;;;;;;;83.10;46.45;;;0.20;99.90;;;;;;5056758;28;20178;-76
2022/12/17 15:20:08;;;;;;;84.07;46.97;;;0.20;99.90;;;;;;5074152;28;20068;-76
2022/12/17 15:22:36;;;;;;;85.38;47.35;;;0.20;99.90;;;;;;5055592;28;20130;-76
2022/12/17 15:25:02;;;;;;;80.80;46.35;;;0.10;99.90;;;;;;5074251;28;20562;-75
2022/12/17 15:27:28;;;;;;;75.80;43.03;;;0.10;99.90;;;;;;5073670;28;20076;-76
2022/12/17 15:29:54;;;;;;;85.63;47.83;;;0.20;99.90;;;;;;5039982;28;20767;-76
2022/12/17 15:32:22;;;;;;;81.87;44.47;;;0.10;99.90;;;;;;5055511;28;20040;-76
2022/12/17 15:34:49;;;;;;;84.57;48.05;;;0.10;99.90;;;;;;5073395;28;20101;-75
2022/12/17 15:37:15;;;;;;;84.63;46.83;;;0.10;99.90;;;;;;5073222;28;20052;-75
2022/12/17 15:39:41;;;;;;;74.40;44.03;;;0.10;99.90;;;;;;5074227;28;20052;-75
2022/12/17 15:44:53;;;;;;;;;;;0.10;99.90;;;;;;5056707;28;20499;-76
2022/12/17 15:47:18;;;;;;;101.57;54.53;;;0.00;99.90;;;;;;5073099;28;19924;-75
2022/12/17 15:49:44;;;;;;;83.87;48.27;;;0.00;99.90;;;;;;5073290;28;20045;-76
2022/12/17 15:52:13;;;;;;;80.53;47.00;;;0.00;99.90;;;;;;5055588;28;20477;-75
2022/12/17 15:54:42;;;;;;;84.00;46.03;;;0.00;99.90;;;;;;5073788;28;20426;-75
2022/12/17 15:57:08;;;;;;;82.40;44.63;;;-0.10;99.90;;;;;;5073207;28;20044;-75
2022/12/17 15:59:34;;;;;;;80.88;44.45;;;0.20;99.90;;;;;;5073218;28;20079;-75
2022/12/17 16:01:59;;;;;;;86.17;48.03;;;-0.10;99.90;;;;;;5073390;28;20468;-75
2022/12/17 16:04:25;;;;;;;83.13;46.30;;;-0.10;99.90;;;;;;5073643;28;20404;-75
2022/12/17 16:06:51;;;;;;;80.93;45.40;;;0.00;99.90;;;;;;5038754;28;20105;-75
2022/12/17 16:09:17;;;;;;;80.87;44.07;;;-0.10;99.90;;;;;;5074155;28;20052;-75
2022/12/17 16:11:42;;;;;;;83.43;46.67;;;-0.20;99.90;;;;;;5056126;28;20041;-75
2022/12/17 16:14:08;;;;;;;83.97;44.50;;;-0.20;99.90;;;;;;5073316;28;20052;-75
2022/12/17 16:16:34;;;;;;;83.97;46.50;;;-0.20;99.90;;;;;;5073099;28;20476;-75
2022/12/17 16:19:00;;;;;;;81.20;45.73;;;-0.20;99.90;;;;;;5055966;28;20045;-75
2022/12/17 16:21:27;;;;;;;78.75;45.40;;;-0.30;99.90;;;;;;5072942;28;20045;-75
2022/12/17 16:23:53;;;;;;;79.43;44.17;;;-0.30;99.90;;;;;;5072970;28;20048;-75
2022/12/17 16:26:18;;;;;;;83.53;44.87;;;-0.30;99.90;;;;;;5072591;28;20051;-75
2022/12/17 16:28:44;;;;;;;77.13;43.83;;;-0.30;99.90;;;;;;5039140;28;20302;-75
2022/12/17 16:31:12;;;;;;;82.13;43.83;;;-0.30;99.90;;;;;;5056006;28;20102;-75
2022/12/17 16:33:40;;;;;;;84.22;44.92;;;-0.30;99.90;;;;;;5057642;28;20040;-75
2022/12/17 16:36:07;;;;;;;82.32;43.75;;;-0.40;99.90;;;;;;5076517;28;20048;-75
2022/12/17 16:38:34;;;;;;;82.35;45.42;;;-0.40;99.90;;;;;;5055138;28;20061;-75
2022/12/17 16:41:01;;;;;;;77.97;43.78;;;-0.40;99.90;;;;;;5056529;28;20485;-75
2022/12/17 16:43:31;;;;;;;79.82;44.50;;;-0.40;99.90;;;;;;5055431;28;20124;-72
2022/12/17 16:45:57;;;;;;;98.90;52.28;;;-0.40;99.90;;;;;;5055486;28;20127;-73
2022/12/17 16:48:23;;;;;;;84.43;45.90;;;-0.40;99.90;;;;;;5054964;28;20195;-74
2022/12/17 16:50:50;;;;;;;92.18;48.80;;;-0.40;99.90;;;;;;5056384;28;20051;-72
2022/12/17 16:53:16;;;;;;;80.65;44.38;;;-0.50;99.90;;;;;;5055124;28;20052;-73
2022/12/17 16:55:46;;;;;;;79.88;44.95;;;-0.40;99.90;;;;;;5056252;28;20060;-70
2022/12/17 16:58:13;;;;;;;78.97;44.40;;;-0.40;99.90;;;;;;5055954;28;20037;-73
2022/12/17 17:00:39;;;;;;;77.65;43.40;;;-0.50;99.90;;;;;;5056109;28;20052;-74
2022/12/17 17:03:06;;;;;;;79.90;44.20;;;-0.50;99.90;;;;;;5055690;28;20049;-74
2022/12/17 17:05:33;;;;;;;80.13;43.05;;;-0.60;99.90;;;;;;5056781;28;20288;-80
2022/12/17 17:07:59;;;;;;;74.60;42.97;;;-0.60;99.90;;;;;;5060617;28;20049;-75
2022/12/17 17:10:26;;;;;;;92.22;48.25;;;-0.60;99.90;;;;;;5060001;28;20041;-75
2022/12/17 17:12:52;;;;;;;87.47;46.65;;;-0.60;99.90;;;;;;5060505;28;20052;-75
2022/12/17 17:15:18;;;;;;;89.20;48.17;;;-0.50;99.90;;;;;;5061945;28;20043;-75
2022/12/17 17:17:44;;;;;;;83.23;44.70;;;-0.60;99.90;;;;;;5040214;28;20128;-75
2022/12/17 17:20:10;;;;;;;79.43;42.97;;;-0.50;99.90;;;;;;5058405;28;20045;-79
2022/12/17 17:22:36;;;;;;;78.07;42.13;;;-0.60;99.90;;;;;;5055463;28;20048;-80
2022/12/17 17:25:02;;;;;;;86.20;44.10;;;-0.60;99.90;;;;;;5055268;28;20056;-79
2022/12/17 17:27:27;;;;;;;81.70;43.37;;;-0.60;99.90;;;;;;5055367;28;20103;-79
2022/12/17 17:29:55;;;;;;;78.53;43.23;;;-0.70;99.90;;;;;;5055901;28;20279;-79
2022/12/17 17:32:21;;;;;;;82.57;44.80;;;-0.70;99.90;;;;;;5055374;28;20052;-79
2022/12/17 17:34:46;;;;;;;80.93;42.97;;;-0.70;99.90;;;;;;5037723;28;20049;-78
2022/12/17 17:37:12;;;;;;;76.70;41.77;;;-0.80;99.90;;;;;;5058062;28;20052;-81
2022/12/17 17:39:38;;;;;;;87.73;44.80;;;-0.80;99.90;;;;;;5075429;28;20110;-84
2022/12/17 17:42:04;;;;;;;84.77;43.73;;;-0.80;99.90;;;;;;5040906;28;20449;-80
2022/12/17 17:44:30;;;;;;;90.13;46.90;;;-0.80;99.90;;;;;;5074135;28;20488;-83
2022/12/17 17:46:55;;;;;;;79.73;42.87;;;-0.80;99.90;;;;;;5075018;28;20046;-76
2022/12/17 17:49:21;;;;;;;76.97;41.33;;;-0.70;99.90;;;;;;5057921;28;20063;-82
2022/12/17 17:51:47;;;;;;;81.27;42.07;;;-0.80;99.90;;;;;;5075086;28;20087;-83
2022/12/17 17:54:12;;;;;;;82.33;44.37;;;-0.80;99.90;;;;;;5041453;28;20049;-78
2022/12/17 17:56:40;;;;;;;81.43;44.13;;;-0.80;99.90;;;;;;5057265;28;20098;-80
2022/12/17 17:59:11;;;;;;;102.38;58.60;;;-0.80;99.90;;;;;;5040818;28;20117;-79
2022/12/17 18:01:40;;;;;;;82.30;43.13;;;-0.80;99.90;;;;;;5056900;28;20051;-78
2022/12/17 18:04:08;;;;;;;83.68;42.50;;;-0.80;99.90;;;;;;5040796;28;20060;-79
2022/12/17 18:06:39;;;;;;;82.70;44.15;;;-0.80;99.90;;;;;;5074642;28;20048;-78
2022/12/17 18:09:06;;;;;;;80.63;44.05;;;-0.80;99.90;;;;;;5057510;28;20048;-79
2022/12/17 18:11:32;;;;;;;82.55;44.38;;;-0.90;99.90;;;;;;5075121;28;20127;-78
2022/12/17 18:13:59;;;;;;;79.00;42.63;;;-0.90;99.90;;;;;;5040999;28;20369;-79
2022/12/17 18:16:28;;;;;;;86.78;44.25;;;-0.90;99.90;;;;;;5074996;28;20048;-80
2022/12/17 18:18:59;;;;;;;82.47;43.25;;;-0.90;99.90;;;;;;5074189;28;20511;-80
2022/12/17 18:21:27;;;;;;;81.80;42.88;;;-0.90;99.90;;;;;;5056763;28;20123;-81
2022/12/17 18:24:00;;;;;;;82.88;41.17;;;-0.90;99.90;;;;;;5056711;28;20052;-79
2022/12/17 18:26:29;;;;;;;83.00;41.95;;;-0.90;99.90;;;;;;5074300;28;20049;-80
2022/12/17 18:28:57;;;;;;;81.72;41.92;;;-0.90;99.90;;;;;;5056509;28;20087;-79
2022/12/17 18:31:25;;;;;;;86.72;44.33;;;-0.90;99.90;;;;;;5074234;28;20079;-80
2022/12/17 18:34:02;;;;;;;84.28;42.70;;;-1.00;99.90;;;;;;5074098;28;20045;-81
2022/12/17 18:36:31;;;;;;;78.35;41.90;;;-1.00;99.90;;;;;;5056538;28;20059;-78
2022/12/17 18:39:06;;;;;;;84.07;42.70;;;-1.00;99.90;;;;;;5074709;28;20060;-82
2022/12/17 18:44:17;;;;;;;84.65;42.40;;;-1.00;99.90;;;;;;5074243;28;20045;-79
2022/12/17 18:46:42;;;;;;;77.22;40.90;;;-1.00;99.90;;;;;;5056097;28;20045;-81
2022/12/17 18:49:12;;;;;;;85.07;43.73;;;-1.00;99.90;;;;;;5056180;28;20048;-81
2022/12/17 18:51:39;;;;;;;78.07;40.40;;;-1.00;99.90;;;;;;5073809;28;20162;-81
2022/12/17 18:54:07;;;;;;;89.97;44.67;;;-1.00;99.90;;;;;;5056479;28;20048;-82
2022/12/17 18:56:34;;;;;;;82.13;40.72;;;-1.00;99.90;;;;;;5056018;28;20087;-81
2022/12/17 18:59:00;;;;;;;84.28;42.88;;;-1.00;99.90;;;;;;5073631;28;20547;-80
2022/12/17 19:01:29;;;;;;;82.13;43.70;;;-1.00;99.90;;;;;;5074729;28;20062;-82
2022/12/17 19:03:55;;;;;;;80.68;42.22;;;-1.00;99.90;;;;;;5073901;28;20136;-82
2022/12/17 19:06:22;;;;;;;87.00;41.03;;;-1.00;99.90;;;;;;5056166;28;20084;-84
2022/12/17 19:08:49;;;;;;;85.85;43.28;;;-1.10;99.90;;;;;;5073747;28;20044;-82
2022/12/17 19:11:19;;;;;;;81.28;40.78;;;-1.10;99.90;;;;;;5073801;28;20052;-81
2022/12/17 19:13:45;;;;;;;86.93;44.38;;;-1.00;99.90;;;;;;5073734;28;20049;-83
2022/12/17 19:16:23;;;;;;;76.05;40.00;;;-1.00;99.90;;;;;;5074561;28;20056;-81
2022/12/17 19:19:03;;;;;;;81.55;39.85;;;-1.10;99.90;;;;;;5073624;28;20475;-82
2022/12/17 19:21:30;;;;;;;82.72;43.10;;;-1.10;99.90;;;;;;5055787;28;20453;-81
2022/12/17 19:23:59;;;;;;;79.20;42.15;;;-1.10;99.90;;;;;;5055979;28;20052;-84
2022/12/17 19:26:26;;;;;;;77.28;40.95;;;-1.00;99.90;;;;;;5073669;28;20396;-83
2022/12/17 19:28:54;;;;;;;78.00;41.95;;;-1.10;99.90;;;;;;5055672;28;20049;-79
2022/12/17 19:31:21;;;;;;;81.32;41.42;;;-1.10;99.90;;;;;;5073513;28;20049;-81
2022/12/17 19:33:47;;;;;;;82.72;41.90;;;-1.10;99.90;;;;;;5073798;28;20370;-82
2022/12/17 19:36:19;;;;;;;82.27;40.60;;;-1.20;99.90;;;;;;5073624;28;20056;-82
2022/12/17 19:38:45;;;;;;;85.70;42.58;;;-1.10;99.90;;;;;;5052923;28;20284;-81
2022/12/17 19:41:14;;;;;;;77.30;42.22;;;-1.20;99.90;;;;;;5052217;28;20040;-81
2022/12/17 19:43:41;;;;;;;79.95;42.60;;;-1.20;99.90;;;;;;5053251;28;20127;-80
2022/12/17 19:46:26;;;;;;;98.88;51.80;;;-1.20;99.90;;;;;;5052695;28;20049;-79
2022/12/17 19:48:53;;;;;;;82.75;42.10;;;-1.20;99.90;;;;;;5052895;28;20048;-79
2022/12/17 19:51:21;;;;;;;83.55;41.35;;;-1.30;99.90;;;;;;5053329;28;20103;-80
2022/12/17 19:53:48;;;;;;;81.05;41.78;;;-1.30;99.90;;;;;;5053233;28;20049;-80
2022/12/17 19:56:25;;;;;;;76.47;39.85;;;-1.30;99.90;;;;;;5052219;28;20045;-81
2022/12/17 19:59:02;;;;;;;78.45;40.22;;;-1.30;99.90;;;;;;5053614;28;20361;-79
2022/12/17 20:01:30;;;;;;;77.60;38.92;;;-1.40;99.90;;;;;;5052354;28;20055;-80
2022/12/17 20:03:56;;;;;;;74.82;39.05;;;-1.40;99.90;;;;;;5052244;28;20124;-80
2022/12/17 20:06:25;;;;;;;82.55;39.17;;;-1.40;99.90;;;;;;5053185;28;20049;-80
2022/12/17 20:08:51;;;;;;;83.28;39.90;;;-1.40;99.90;;;;;;5056020;28;20053;-80
2022/12/17 20:11:32;;;;;;;90.18;42.72;;;-1.40;99.90;;;;;;5056077;28;20049;-81
2022/12/17 20:14:36;;;;;;;80.88;38.35;;;-1.40;99.90;;;;;;5040308;28;20055;-82
2022/12/17 20:17:03;;;;;;;78.15;39.42;;;-1.40;99.90;;;;;;5015607;28;20061;-77
2022/12/17 20:19:31;;;;;;;81.65;42.45;;;-1.40;99.90;;;;;;5049204;28;20076;-80
2022/12/17 20:21:58;;;;;;;80.00;41.25;;;-1.40;99.90;;;;;;5056894;28;20085;-79
2022/12/17 20:24:24;;;;;;;79.65;40.03;;;-1.30;99.90;;;;;;5056886;28;20051;-81
2022/12/17 20:26:52;;;;;;;81.73;40.57;;;-1.30;99.90;;;;;;5056845;28;20049;-81
2022/12/17 20:29:22;;;;;;;76.95;38.33;;;-1.20;99.90;;;;;;5056796;28;20080;-82
2022/12/17 20:31:50;;;;;;;77.68;40.10;;;-1.20;99.90;;;;;;5056784;28;20041;-85
2022/12/17 20:34:17;;;;;;;78.35;40.92;;;-1.20;99.90;;;;;;5055993;28;20045;-85
2022/12/17 20:36:43;;;;;;;73.93;38.70;;;-1.30;99.90;;;;;;5055396;28;20041;-82
2022/12/17 20:39:10;;;;;;;73.53;39.37;;;-1.30;99.90;;;;;;5074924;28;20500;-83
2022/12/17 20:41:36;;;;;;;78.38;40.40;;;-1.20;99.90;;;;;;5058835;28;20040;-84
2022/12/17 20:44:05;;;;;;;75.35;38.88;;;-1.20;99.90;;;;;;5058552;28;20055;-82
2022/12/17 20:46:31;;;;;;;75.75;40.25;;;-1.30;99.90;;;;;;5058527;28;20055;-82
2022/12/17 20:48:59;;;;;;;82.28;42.95;;;-1.20;99.90;;;;;;5076211;28;20080;-83
2022/12/17 20:51:26;;;;;;;76.65;40.75;;;-1.20;99.90;;;;;;5076330;28;20189;-83
2022/12/17 20:53:53;;;;;;;75.20;39.95;;;-1.30;99.90;;;;;;5058610;28;20157;-82
2022/12/17 20:56:21;;;;;;;79.35;41.15;;;-1.30;99.90;;;;;;5076187;28;20128;-84
2022/12/17 20:58:50;;;;;;;76.75;39.53;;;-1.40;99.90;;;;;;5058426;28;20465;-82
2022/12/17 21:01:20;;;;;;;77.25;40.72;;;-1.40;99.90;;;;;;5076181;28;20037;-86
2022/12/17 21:03:48;;;;;;;73.35;37.65;;;-1.40;99.90;;;;;;5076020;28;20043;-80
2022/12/17 21:06:16;;;;;;;74.93;39.63;;;-1.30;99.90;;;;;;5076076;28;20429;-81
2022/12/17 21:08:44;;;;;;;77.18;41.55;;;-1.30;99.90;;;;;;5075956;28;20091;-79
2022/12/17 21:11:10;;;;;;;76.68;41.42;;;-1.30;99.90;;;;;;5075945;28;20048;-81
2022/12/17 21:13:36;;;;;;;76.60;42.30;;;-1.30;99.90;;;;;;5075885;28;20048;-81
2022/12/17 21:16:09;;;;;;;74.53;40.42;;;-1.20;99.90;;;;;;5076073;28;20076;-81
2022/12/17 21:18:35;;;;;;;71.97;39.05;;;-1.30;99.90;;;;;;5075261;28;20492;-81
2022/12/17 21:21:21;;;;;;;70.43;40.27;;;-1.30;99.90;;;;;;5075224;28;20083;-80
2022/12/17 21:23:48;;;;;;;74.60;40.25;;;-1.30;99.90;;;;;;5057946;28;20521;-77
2022/12/17 21:26:20;;;;;;;75.63;40.92;;;-1.30;99.90;;;;;;5058030;28;20109;-81
2022/12/17 21:28:48;;;;;;;74.35;40.20;;;-1.30;99.90;;;;;;5058564;28;20391;-82
2022/12/17 21:31:18;;;;;;;71.68;38.88;;;-1.30;99.90;;;;;;5075700;28;20091;-86
2022/12/17 21:33:46;;;;;;;75.30;40.42;;;-1.30;99.90;;;;;;5075929;28;20071;-81
2022/12/17 21:36:12;;;;;;;74.32;39.70;;;-1.30;99.90;;;;;;5057638;28;20376;-84
2022/12/17 21:38:39;;;;;;;77.03;40.45;;;-1.30;99.90;;;;;;5057108;28;20076;-85
2022/12/17 21:41:13;;;;;;;73.65;39.83;;;-1.40;99.90;;;;;;5057858;28;20048;-83
2022/12/17 21:43:39;;;;;;;70.93;39.35;;;-1.40;99.90;;;;;;5075918;28;20051;-85
2022/12/17 21:46:06;;;;;;;76.03;40.63;;;-1.40;99.90;;;;;;5058644;28;20045;-84
2022/12/17 21:48:32;;;;;;;75.10;40.30;;;-1.40;99.90;;;;;;5075237;28;20056;-81
2022/12/17 21:50:58;;;;;;;73.38;40.65;;;-1.40;99.90;;;;;;5057549;28;20044;-80
2022/12/17 21:53:24;;;;;;;76.67;41.07;;;-1.40;99.90;;;;;;5057566;28;20048;-81
2022/12/17 21:55:50;;;;;;;73.93;39.97;;;-1.40;99.90;;;;;;5075065;28;20055;-81
2022/12/17 21:58:17;;;;;;;75.27;40.67;;;-1.40;99.90;;;;;;5075095;28;20040;-81
2022/12/17 22:00:42;;;;;;;73.75;39.60;;;-1.40;99.90;;;;;;5075077;28;20048;-81
2022/12/17 22:03:08;;;;;;;73.37;38.93;;;-1.50;99.90;;;;;;5057188;28;20520;-81
2022/12/17 22:05:36;;;;;;;74.50;39.75;;;-1.50;99.90;;;;;;5075802;28;20040;-85
2022/12/17 22:08:03;;;;;;;74.93;40.20;;;-1.50;99.90;;;;;;5074875;28;20045;-80
2022/12/17 22:10:29;;;;;;;76.90;40.15;;;-1.60;99.90;;;;;;5058064;28;20052;-80
2022/12/17 22:15:39;;;;;;;73.78;39.90;;;-1.50;99.90;;;;;;5057708;28;20136;-81
2022/12/17 22:18:05;;;;;;;77.50;42.50;;;-1.50;99.90;;;;;;5056803;28;20135;-81
2022/12/17 22:20:31;;;;;;;72.78;39.50;;;-1.40;99.90;;;;;;5074687;28;20048;-80
2022/12/17 22:22:56;;;;;;;69.13;39.27;;;-1.40;99.90;;;;;;5075366;28;20064;-79
2022/12/17 22:25:22;;;;;;;73.20;39.87;;;-1.40;99.90;;;;;;5074548;28;20074;-79
2022/12/17 22:27:48;;;;;;;69.73;38.87;;;-1.40;99.90;;;;;;5056578;28;20040;-81
2022/12/17 22:33:02;;;;;;;71.00;39.22;;;-1.40;99.90;;;;;;5074403;28;20053;-80
2022/12/17 22:35:37;;;;;;;75.00;40.40;;;-1.40;99.90;;;;;;5074326;28;20049;-83
2022/12/17 22:38:04;;;;;;;74.32;40.72;;;-1.40;99.90;;;;;;5073912;28;20064;-85
2022/12/17 22:40:32;;;;;;;70.00;39.45;;;-1.40;99.90;;;;;;5074974;28;20115;-83
2022/12/17 22:45:42;;;;;;;72.82;38.42;;;-1.30;99.90;;;;;;5056761;28;20484;-82
2022/12/17 22:48:10;;;;;;;74.27;39.00;;;-1.40;99.90;;;;;;5057023;28;20044;-82
2022/12/17 22:50:36;;;;;;;73.57;38.72;;;-1.50;99.90;;;;;;5073814;28;20511;-81
2022/12/17 22:53:02;;;;;;;74.22;39.88;;;-1.50;99.90;;;;;;5056296;28;20157;-82
2022/12/17 22:55:28;;;;;;;72.07;39.07;;;-1.50;99.90;;;;;;5074244;28;20044;-84
2022/12/17 22:57:54;;;;;;;70.63;38.55;;;-1.50;99.90;;;;;;5056282;28;20290;-83
2022/12/17 23:00:27;;;;;;;76.17;41.70;;;-1.50;99.90;;;;;;5056082;28;20048;-84
2022/12/17 23:02:54;;;;;;;74.05;39.28;;;-1.50;99.90;;;;;;5057123;28;20052;-83
2022/12/17 23:05:21;;;;;;;77.40;38.13;;;-1.50;99.90;;;;;;5074539;28;20055;-83
2022/12/17 23:07:48;;;;;;;67.85;36.88;;;-1.40;99.90;;;;;;5056765;28;20056;-84
2022/12/17 23:10:15;;;;;;;73.82;40.03;;;-1.40;99.90;;;;;;5023016;28;20550;-83
2022/12/17 23:12:51;;;;;;;72.32;38.65;;;-1.50;99.90;;;;;;5056910;28;20127;-83
2022/12/17 23:15:35;;;;;;;76.27;38.13;;;-1.40;99.90;;;;;;5056345;28;20040;-83
2022/12/17 23:18:03;;;;;;;70.85;37.45;;;-1.40;99.90;;;;;;5062214;28;20386;-83
2022/12/17 23:20:31;;;;;;;75.57;39.72;;;-1.40;99.90;;;;;;5039848;28;20048;-83
2022/12/17 23:22:57;;;;;;;70.72;38.15;;;-1.40;99.90;;;;;;5055676;28;20055;-83
2022/12/17 23:25:23;;;;;;;70.97;38.43;;;-1.40;99.90;;;;;;5074105;28;20040;-83
2022/12/17 23:27:49;;;;;;;70.75;38.05;;;-1.50;99.90;;;;;;5055769;28;20045;-83
2022/12/17 23:30:16;;;;;;;74.13;40.70;;;-1.50;99.90;;;;;;5038906;28;20048;-83
2022/12/17 23:32:43;;;;;;;74.18;40.50;;;-1.40;99.90;;;;;;5055781;28;20101;-83
2022/12/17 23:35:10;;;;;;;76.65;39.42;;;-1.40;99.90;;;;;;5055876;28;20503;-83
2022/12/17 23:37:37;;;;;;;68.18;37.17;;;-1.30;99.90;;;;;;5039128;28;20557;-83
2022/12/17 23:40:04;;;;;;;71.30;37.50;;;-1.30;99.90;;;;;;5055008;28;20512;-83
2022/12/17 23:42:30;;;;;;;66.20;37.58;;;-1.40;99.90;;;;;;5072684;28;20052;-83
2022/12/17 23:44:55;;;;;;;74.63;38.63;;;-1.40;99.90;;;;;;5055664;28;20047;-83
2022/12/17 23:47:21;;;;;;;68.63;38.93;;;-1.40;99.90;;;;;;5039350;28;20079;-83
2022/12/17 23:49:47;;;;;;;74.73;39.50;;;-1.60;99.90;;;;;;5055654;28;20181;-84
2022/12/17 23:52:12;;;;;;;74.07;38.43;;;-1.60;99.90;;;;;;5039005;28;20135;-83
2022/12/17 23:54:38;;;;;;;75.07;39.57;;;-1.50;99.90;;;;;;5055374;28;20614;-83
2022/12/17 23:57:04;;;;;;;73.47;38.80;;;-1.40;99.90;;;;;;5038921;28;20052;-84
2022/12/17 23:59:30;;;;;;;77.07;40.00;;;-1.40;99.90;;;;;;5074024;28;20123;-84
